Time;durP1;ratioP1;P1;durP2;ratioP2;P2;SDS_P1;SDS_P2;PMS_P1;PMS_P2;Temp;Humidity;BMP_temperature;BMP_pressure;BME280_temperature;BME280_humidity;BME280_pressure;Samples;Min_cycle;Max_cycle;Signal;HPM_P1;HPM_P2
2021/05/12 00:01:39;;;;;;;4.50;2.55;;;;;;;14.57;52.70;95950.58;128106;1101;24340;-85
2021/05/12 00:04:09;;;;;;;3.08;2.25;;;;;;;14.56;52.79;95957.02;128087;1101;22833;-85
2021/05/12 00:06:39;;;;;;;4.25;2.15;;;;;;;14.54;52.82;95945.89;128081;1101;22756;-82
2021/05/12 00:09:09;;;;;;;3.50;1.88;;;;;;;14.48;53.06;95947.94;128098;1101;24105;-86
2021/05/12 00:11:39;;;;;;;4.75;2.18;;;;;;;14.50;52.97;95942.30;128103;1101;22815;-83
2021/05/12 00:14:09;;;;;;;2.68;2.10;;;;;;;14.43;53.29;95942.75;128105;1101;22843;-83
2021/05/12 00:16:39;;;;;;;3.90;2.45;;;;;;;14.21;53.34;95941.07;128167;1101;22760;-83
2021/05/12 00:19:09;;;;;;;3.43;2.28;;;;;;;14.04;53.90;95938.45;128206;1101;24396;-83
2021/05/12 00:21:43;;;;;;;4.60;2.48;;;;;;;14.06;54.11;95938.91;128162;1095;26217;-84
2021/05/12 00:24:13;;;;;;;5.00;2.30;;;;;;;14.12;54.21;95935.00;128132;1101;22777;-83
2021/05/12 00:26:44;;;;;;;2.70;2.03;;;;;;;14.09;54.12;95935.63;128082;1101;22778;-83
2021/05/12 00:29:14;;;;;;;;;;;;;;;14.01;54.46;95938.30;128110;1101;24099;-83
2021/05/12 00:31:45;;;;;;;3.43;2.08;;;;;;;13.86;54.60;95935.03;128113;1101;24325;-82
2021/05/12 00:34:15;;;;;;;3.30;2.25;;;;;;;13.71;55.12;95940.84;128050;1093;26204;-83
2021/05/12 00:36:47;;;;;;;3.78;2.10;;;;;;;13.68;55.34;95938.03;128067;1101;22860;-81
2021/05/12 00:39:17;;;;;;;3.28;2.20;;;;;;;13.68;55.30;95933.48;128027;1101;24021;-82
2021/05/12 00:41:48;;;;;;;2.93;1.70;;;;;;;13.64;55.16;95932.52;128088;1101;22778;-85
2021/05/12 00:44:17;;;;;;;;;;;;;;;13.61;55.60;95933.16;128128;1101;22787;-84
2021/05/12 00:46:49;;;;;;;4.33;1.98;;;;;;;13.37;55.56;95933.61;128096;1096;21468;-82
2021/05/12 00:49:20;;;;;;;4.38;2.40;;;;;;;13.19;56.56;95926.70;128038;1101;22983;-84
2021/05/12 00:51:50;;;;;;;2.65;1.90;;;;;;;12.92;57.86;95928.49;128112;1101;22922;-84
2021/05/12 00:54:20;;;;;;;4.90;1.73;;;;;;;12.95;58.18;95927.90;128022;1101;22757;-82
2021/05/12 00:56:50;;;;;;;3.00;2.20;;;;;;;13.12;57.75;95926.36;128116;1101;22756;-83
2021/05/12 00:59:30;;;;;;;4.25;2.10;;;;;;;13.27;57.20;95931.27;128044;1101;22738;-84
2021/05/12 01:02:01;;;;;;;3.30;2.17;;;;;;;13.41;57.18;95929.25;128111;1101;22736;-83
2021/05/12 01:04:31;;;;;;;3.80;2.00;;;;;;;13.51;56.78;95928.13;128156;1096;26371;-82
2021/05/12 01:07:01;;;;;;;3.75;2.18;;;;;;;13.43;57.20;95926.27;128135;1095;22756;-83
2021/05/12 01:09:31;;;;;;;3.73;2.63;;;;;;;13.21;57.78;95921.84;128062;1101;22756;-83
2021/05/12 01:12:01;;;;;;;2.48;1.80;;;;;;;13.29;57.98;95921.87;128099;1101;22754;-82
2021/05/12 01:14:32;;;;;;;4.00;1.95;;;;;;;13.38;57.10;95918.45;128084;1101;22815;-81
2021/05/12 01:17:02;;;;;;;5.30;2.13;;;;;;;13.39;57.34;95915.47;128077;1101;22756;-83
2021/05/12 01:19:33;;;;;;;2.58;1.93;;;;;;;13.37;57.53;95917.63;128024;1101;22763;-84
2021/05/12 01:22:03;;;;;;;4.90;2.10;;;;;;;13.25;57.84;95917.48;128084;1101;22738;-84
2021/05/12 01:24:33;;;;;;;2.00;1.80;;;;;;;13.11;58.73;95909.61;128066;1101;22778;-82
2021/05/12 01:27:03;;;;;;;2.67;1.80;;;;;;;12.98;58.92;95905.98;128105;1094;26786;-82
2021/05/12 01:29:33;;;;;;;3.93;2.27;;;;;;;13.06;58.54;95907.86;128133;1094;27243;-87
2021/05/12 01:32:06;;;;;;;3.27;2.17;;;;;;;13.29;57.99;95915.77;128173;1101;22777;-85
2021/05/12 01:34:36;;;;;;;2.88;2.30;;;;;;;13.25;57.83;95912.17;128160;1101;22926;-83
2021/05/12 01:37:06;;;;;;;5.13;2.33;;;;;;;13.08;58.13;95910.99;128058;1101;23637;-81
2021/05/12 01:39:36;;;;;;;5.35;1.93;;;;;;;12.95;58.37;95903.14;128084;1101;22892;-82
2021/05/12 01:42:06;;;;;;;2.85;1.88;;;;;;;12.88;58.49;95906.27;128076;1101;23796;-82
2021/05/12 01:44:36;;;;;;;4.78;2.20;;;;;;;13.05;58.67;95900.98;128072;1101;22777;-83
2021/05/12 01:47:06;;;;;;;3.90;2.30;;;;;;;13.24;58.23;95902.62;128065;1101;22790;-81
2021/05/12 01:49:36;;;;;;;4.05;2.13;;;;;;;13.38;57.97;95897.93;128055;1101;23083;-84
2021/05/12 01:52:06;;;;;;;2.28;1.68;;;;;;;13.45;57.67;95895.56;128182;1095;25868;-82
2021/05/12 01:54:36;;;;;;;2.43;1.90;;;;;;;13.57;57.36;95901.05;128047;1101;22780;-82
2021/05/12 01:57:07;;;;;;;4.13;2.30;;;;;;;13.65;56.94;95897.61;128075;1101;22760;-82
2021/05/12 01:59:37;;;;;;;;;;;;;;;13.65;56.82;95891.47;128174;1101;22760;-83
2021/05/12 02:02:06;;;;;;;4.07;2.20;;;;;;;13.60;56.92;95895.09;128099;1101;21468;-81
2021/05/12 02:04:39;;;;;;;3.68;2.55;;;;;;;13.53;57.27;95900.12;128068;1101;23101;-82
2021/05/12 02:07:10;;;;;;;3.17;2.23;;;;;;;13.40;57.53;95901.05;128143;1101;22836;-83
2021/05/12 02:09:43;;;;;;;3.13;2.25;;;;;;;13.16;57.94;95895.36;128108;1101;23617;-82
2021/05/12 02:12:13;;;;;;;2.73;2.13;;;;;;;13.10;58.52;95896.63;128078;1101;22750;-85
2021/05/12 02:14:43;;;;;;;4.38;2.60;;;;;;;13.14;58.07;95886.91;128123;1101;24400;-82
2021/05/12 02:17:13;;;;;;;2.48;2.05;;;;;;;13.19;57.94;95889.44;128100;1096;22756;-83
2021/05/12 02:19:43;;;;;;;3.98;1.98;;;;;;;13.17;57.93;95891.61;128096;1101;22773;-83
2021/05/12 02:22:13;;;;;;;3.55;2.48;;;;;;;13.06;58.77;95891.11;128078;1093;26210;-84
2021/05/12 02:24:43;;;;;;;5.18;2.60;;;;;;;13.02;59.08;95887.52;128119;1101;22776;-83
2021/05/12 02:27:13;;;;;;;2.38;2.18;;;;;;;13.05;59.68;95878.91;128072;1101;22764;-83
2021/05/12 02:29:43;;;;;;;3.00;2.23;;;;;;;13.38;59.22;95865.98;128102;1101;22812;-82
2021/05/12 02:32:13;;;;;;;3.93;2.30;;;;;;;13.66;58.70;95869.09;128105;1101;23377;-85
2021/05/12 02:34:43;;;;;;;2.47;2.13;;;;;;;13.70;58.58;95874.56;128090;1101;22777;-82
2021/05/12 02:37:12;;;;;;;3.00;1.78;;;;;;;13.58;58.34;95873.31;128120;1101;23701;-87
2021/05/12 02:39:42;;;;;;;5.43;2.50;;;;;;;13.51;57.94;95881.02;128075;1101;22836;-82
2021/05/12 02:42:12;;;;;;;3.27;2.23;;;;;;;13.48;58.01;95872.84;128052;1101;23719;-85
2021/05/12 02:44:42;;;;;;;3.40;1.98;;;;;;;13.50;57.96;95873.31;128154;1093;25993;-82
2021/05/12 02:47:12;;;;;;;5.57;2.17;;;;;;;13.41;58.03;95870.67;128177;1101;22837;-83
2021/05/12 02:49:43;;;;;;;2.43;2.13;;;;;;;13.28;58.18;95871.61;128065;1101;22836;-81
2021/05/12 02:52:13;;;;;;;4.05;2.20;;;;;;;13.14;58.17;95870.95;128108;1101;22756;-84
2021/05/12 02:54:42;;;;;;;5.68;2.45;;;;;;;13.12;58.66;95873.14;128090;1094;22756;-81
2021/05/12 02:57:12;;;;;;;3.98;2.35;;;;;;;13.02;58.64;95871.55;128072;1101;22781;-82
2021/05/12 02:59:42;;;;;;;4.97;2.40;;;;;;;12.99;58.67;95869.52;128134;1101;22967;-82
2021/05/12 03:02:12;;;;;;;3.48;2.15;;;;;;;12.97;58.70;95867.17;128111;1101;22994;-86
2021/05/12 03:04:42;;;;;;;2.33;2.10;;;;;;;12.96;58.66;95856.84;128111;1101;22785;-82
2021/05/12 03:07:12;;;;;;;4.33;2.30;;;;;;;12.98;58.63;95862.63;128072;1101;23698;-84
2021/05/12 03:09:42;;;;;;;4.70;2.13;;;;;;;13.04;58.62;95862.16;128185;1101;22777;-83
2021/05/12 03:12:13;;;;;;;3.35;2.00;;;;;;;13.21;58.52;95863.30;128063;1101;22774;-83
2021/05/12 03:14:43;;;;;;;3.98;2.13;;;;;;;13.38;58.04;95857.21;128040;1101;22837;-82
2021/05/12 03:17:13;;;;;;;3.30;1.93;;;;;;;13.43;57.77;95857.04;128070;1101;22778;-84
2021/05/12 03:19:43;;;;;;;1.70;1.60;;;;;;;13.46;57.74;95851.08;128109;1101;22750;-83
2021/05/12 03:22:12;;;;;;;2.70;1.83;;;;;;;13.63;57.10;95851.84;128110;1101;22775;-83
2021/05/12 03:24:45;;;;;;;2.18;1.45;;;;;;;13.96;56.25;95848.66;128158;1093;26247;-83
2021/05/12 03:27:15;;;;;;;2.53;1.80;;;;;;;14.35;56.02;95846.77;128085;1101;22760;-84
2021/05/12 03:29:44;;;;;;;2.27;1.90;;;;;;;14.42;55.91;95842.52;128097;1101;24414;-82
2021/05/12 03:32:14;;;;;;;4.40;2.35;;;;;;;14.39;55.54;95847.72;128082;1101;22757;-85
2021/05/12 03:34:44;;;;;;;3.40;2.15;;;;;;;14.27;55.95;95848.39;128120;1101;23706;-83
2021/05/12 03:37:14;;;;;;;3.08;2.30;;;;;;;14.01;55.91;95851.14;128041;1101;22777;-84
2021/05/12 03:39:44;;;;;;;3.53;2.13;;;;;;;13.89;56.30;95843.02;128082;1101;22778;-83
2021/05/12 03:42:14;;;;;;;5.58;2.13;;;;;;;13.85;56.44;95845.54;128237;1101;22756;-85
2021/05/12 03:44:44;;;;;;;2.55;2.00;;;;;;;13.79;56.49;95846.01;128058;1101;23373;-83
2021/05/12 03:47:14;;;;;;;3.58;2.00;;;;;;;13.85;56.60;95842.88;128073;1101;22780;-83
2021/05/12 03:49:44;;;;;;;6.03;2.30;;;;;;;13.84;56.69;95845.86;128109;1101;24355;-82
2021/05/12 03:52:14;;;;;;;3.53;2.38;;;;;;;13.86;57.01;95847.11;128078;1101;22816;-83
2021/05/12 03:54:44;;;;;;;2.75;1.93;;;;;;;13.81;57.10;95847.28;128083;1101;23207;-83
2021/05/12 03:57:14;;;;;;;4.73;2.33;;;;;;;13.95;57.10;95845.21;128121;1096;26241;-85
2021/05/12 03:59:44;;;;;;;4.48;2.00;;;;;;;14.07;57.16;95839.19;128141;1101;22750;-82
2021/05/12 04:02:14;;;;;;;4.63;2.00;;;;;;;14.17;56.82;95838.85;128083;1101;22819;-82
2021/05/12 04:04:43;;;;;;;3.98;2.03;;;;;;;14.39;56.35;95829.05;128184;1101;22750;-83
2021/05/12 04:07:13;;;;;;;2.93;2.00;;;;;;;14.63;55.96;95834.58;128125;1094;22875;-85
2021/05/12 04:09:44;;;;;;;2.47;1.90;;;;;;;14.78;56.02;95835.94;128150;1101;22923;-83
2021/05/12 04:12:13;;;;;;;;;;;;;;;14.91;55.86;95829.55;128248;1101;24275;-87
2021/05/12 04:14:43;;;;;;;2.85;1.88;;;;;;;15.18;54.44;95835.48;128197;1101;21448;-82
2021/05/12 04:17:12;;;;;;;4.70;2.13;;;;;;;15.47;53.80;95829.27;128129;1101;22777;-84
2021/05/12 04:19:42;;;;;;;4.10;1.88;;;;;;;15.79;52.30;95833.10;128083;1101;22926;-84
2021/05/12 04:22:13;;;;;;;2.63;1.90;;;;;;;16.08;51.82;95838.30;128124;1101;22781;-84
2021/05/12 04:24:43;;;;;;;4.03;1.80;;;;;;;16.31;51.92;95838.63;128110;1101;22778;-83
2021/05/12 04:27:14;;;;;;;2.83;2.03;;;;;;;16.47;51.42;95830.72;128073;1101;22753;-83
2021/05/12 04:29:42;;;;;;;;;;;;;;;16.56;50.46;95832.19;128119;1101;23746;-84
2021/05/12 04:32:12;;;;;;;4.05;1.95;;;;;;;16.70;50.53;95829.20;128111;1101;21597;-83
2021/05/12 04:34:42;;;;;;;3.28;2.15;;;;;;;16.97;49.54;95826.93;128076;1101;22840;-82
2021/05/12 04:37:12;;;;;;;2.70;1.77;;;;;;;18.61;50.13;95826.69;128090;1101;22922;-84
2021/05/12 04:39:42;;;;;;;3.60;2.20;;;;;;;20.86;47.67;95813.68;128160;1101;22877;-84
2021/05/12 04:42:12;;;;;;;3.60;2.58;;;;;;;22.55;45.21;95817.88;128056;1101;24407;-83
2021/05/12 04:44:42;;;;;;;4.65;2.23;;;;;;;23.89;40.93;95827.87;128067;1101;22750;-82
2021/05/12 04:47:13;;;;;;;4.78;2.40;;;;;;;24.84;39.71;95815.56;128040;1101;22774;-84
2021/05/12 04:49:43;;;;;;;4.20;2.08;;;;;;;26.09;39.49;95814.36;128097;1101;22926;-84
2021/05/12 04:52:13;;;;;;;4.03;2.18;;;;;;;27.23;37.76;95811.48;128116;1101;24115;-83
2021/05/12 04:54:43;;;;;;;3.68;1.93;;;;;;;28.02;35.46;95809.34;128085;1097;22836;-84
2021/05/12 04:57:13;;;;;;;3.63;1.80;;;;;;;28.94;34.50;95809.86;128097;1094;27212;-84
2021/05/12 04:59:43;;;;;;;4.55;2.00;;;;;;;28.61;29.40;95805.36;128066;1101;24131;-82
2021/05/12 05:02:14;;;;;;;2.63;1.93;;;;;;;28.16;30.47;95797.47;128112;1101;24293;-84
2021/05/12 05:04:44;;;;;;;2.88;1.93;;;;;;;27.92;29.85;95812.22;128073;1101;22791;-83
2021/05/12 05:07:14;;;;;;;4.18;1.95;;;;;;;28.63;31.56;95805.70;128098;1101;22795;-84
2021/05/12 05:09:44;;;;;;;2.95;1.83;;;;;;;29.77;30.73;95806.33;128061;1101;24234;-85
2021/05/12 05:12:14;;;;;;;2.35;1.40;;;;;;;30.57;30.26;95799.45;128146;1101;22756;-84
2021/05/12 05:14:44;;;;;;;3.70;2.07;;;;;;;31.53;29.20;95801.65;128118;1101;22777;-85
2021/05/12 05:17:15;;;;;;;3.63;1.98;;;;;;;32.45;28.93;95803.64;128089;1101;22774;-84
2021/05/12 05:19:45;;;;;;;3.83;1.58;;;;;;;33.63;27.73;95800.40;128172;1095;26206;-86
2021/05/12 05:22:16;;;;;;;3.20;1.93;;;;;;;34.27;27.32;95811.75;128193;1096;22816;-84
2021/05/12 05:24:46;;;;;;;3.95;1.80;;;;;;;34.88;25.56;95803.83;128174;1101;22760;-87
2021/05/12 05:27:16;;;;;;;4.73;1.70;;;;;;;35.15;24.54;95801.09;128105;1101;22847;-87
2021/05/12 05:29:47;;;;;;;1.85;1.40;;;;;;;35.31;25.62;95797.25;128183;1094;22750;-85
2021/05/12 05:32:17;;;;;;;2.28;1.70;;;;;;;35.85;24.40;95796.45;128069;1095;26207;-86
2021/05/12 05:34:47;;;;;;;5.60;1.85;;;;;;;36.39;24.34;95805.00;128115;1101;22754;-86
2021/05/12 05:37:18;;;;;;;3.60;1.57;;;;;;;36.48;23.76;95800.20;128039;1101;22757;-85
2021/05/12 05:39:48;;;;;;;3.28;1.88;;;;;;;36.65;22.11;95794.28;128041;1094;26191;-86
2021/05/12 05:42:18;;;;;;;4.35;2.10;;;;;;;36.32;22.29;95797.81;128101;1101;22795;-88
2021/05/12 05:44:57;;;;;;;2.08;1.60;;;;;;;36.33;22.61;95799.38;128250;1101;22783;-83
2021/05/12 05:47:27;;;;;;;3.38;1.63;;;;;;;36.44;22.32;95796.07;128297;1101;22787;-84
2021/05/12 05:49:57;;;;;;;2.35;1.88;;;;;;;36.45;21.96;95795.60;128237;1101;22756;-84
2021/05/12 05:52:27;;;;;;;2.00;1.58;;;;;;;36.14;20.83;95800.64;128224;1101;22922;-81
2021/05/12 05:54:58;;;;;;;3.55;1.75;;;;;;;35.85;21.50;95790.92;128214;1094;26247;-83
2021/05/12 05:57:28;;;;;;;3.05;1.80;;;;;;;35.65;21.27;95785.14;128349;1101;22754;-81
2021/05/12 05:59:59;;;;;;;1.90;1.70;;;;;;;35.22;21.52;95789.77;128327;1101;22777;-82
2021/05/12 06:02:29;;;;;;;3.33;1.60;;;;;;;35.49;20.95;95794.52;128426;1101;25374;-81
2021/05/12 06:04:59;;;;;;;3.13;1.78;;;;;;;35.61;21.71;95792.80;128381;1101;22774;-82
2021/05/12 06:07:29;;;;;;;3.13;1.60;;;;;;;35.86;21.82;95792.45;128412;1101;22923;-84
2021/05/12 06:09:59;;;;;;;3.08;1.68;;;;;;;36.14;21.14;95790.36;128343;1101;22913;-82
2021/05/12 06:12:29;;;;;;;2.65;1.80;;;;;;;36.49;21.29;95798.20;128405;1101;22756;-83
2021/05/12 06:14:59;;;;;;;4.40;1.73;;;;;;;37.10;19.80;95801.50;128432;1101;22757;-83
2021/05/12 06:17:28;;;;;;;4.85;2.00;;;;;;;37.49;21.31;95805.03;128425;1101;22754;-83
2021/05/12 06:19:58;;;;;;;4.00;1.98;;;;;;;38.61;20.83;95807.63;128439;1101;22784;-81
2021/05/12 06:22:28;;;;;;;5.05;2.00;;;;;;;39.40;20.05;95800.28;128445;1093;22791;-82
2021/05/12 06:24:58;;;;;;;3.50;1.63;;;;;;;40.19;19.63;95796.23;128449;1101;22763;-82
2021/05/12 06:27:28;;;;;;;2.88;1.65;;;;;;;40.80;19.25;95796.61;128452;1101;22763;-83
2021/05/12 06:29:58;;;;;;;1.90;1.48;;;;;;;40.97;18.70;95793.95;128428;1101;22720;-83
2021/05/12 06:32:28;;;;;;;5.83;2.00;;;;;;;41.36;18.64;95791.30;128435;1101;23557;-82
2021/05/12 06:34:58;;;;;;;5.50;1.78;;;;;;;42.05;18.47;95788.09;128518;1101;23818;-83
2021/05/12 06:37:29;;;;;;;2.95;1.55;;;;;;;41.79;16.79;95794.67;128685;1093;22773;-82
2021/05/12 06:39:59;;;;;;;2.75;1.58;;;;;;;41.42;17.51;95794.11;128647;1096;22791;-83
2021/05/12 06:42:29;;;;;;;3.08;1.70;;;;;;;41.54;16.65;95790.09;128752;1101;22879;-82
2021/05/12 06:45:00;;;;;;;4.13;1.50;;;;;;;40.93;16.85;95790.63;128770;1101;22874;-82
2021/05/12 06:47:30;;;;;;;1.85;1.50;;;;;;;41.23;15.75;95788.20;128651;1101;22777;-82
2021/05/12 06:50:00;;;;;;;2.80;1.35;;;;;;;40.43;16.37;95780.02;128618;1101;22783;-82
2021/05/12 06:52:30;;;;;;;2.00;1.48;;;;;;;40.24;16.94;95785.16;128858;1101;22781;-82
2021/05/12 06:55:00;;;;;;;6.18;2.00;;;;;;;40.81;17.36;95780.69;128586;1101;23060;-81
2021/05/12 06:57:30;;;;;;;7.85;2.00;;;;;;;41.42;16.30;95780.20;128509;1101;22771;-82
2021/05/12 07:00:00;;;;;;;5.73;1.90;;;;;;;39.99;16.45;95780.45;128360;1101;22881;-82
2021/05/12 07:02:30;;;;;;;2.68;2.00;;;;;;;39.23;16.62;95780.70;128235;1101;22942;-82
2021/05/12 07:05:00;;;;;;;3.08;2.05;;;;;;;39.15;17.56;95783.15;128288;1101;22790;-82
2021/05/12 07:07:30;;;;;;;4.15;1.75;;;;;;;39.98;16.42;95776.16;128400;1096;27801;-82
2021/05/12 07:10:00;;;;;;;3.30;2.18;;;;;;;39.89;17.21;95771.51;128263;1096;27159;-83
2021/05/12 07:12:30;;;;;;;3.33;1.88;;;;;;;39.21;17.71;95766.56;128305;1101;22738;-82
2021/05/12 07:15:01;;;;;;;2.48;1.70;;;;;;;39.91;17.23;95779.34;128247;1101;22774;-82
2021/05/12 07:17:31;;;;;;;1.80;1.70;;;;;;;38.89;17.44;95766.44;128224;1101;23387;-82
2021/05/12 07:20:02;;;;;;;5.78;2.00;;;;;;;39.80;18.81;95768.91;128264;1096;22807;-82
2021/05/12 07:22:32;;;;;;;9.10;3.23;;;;;;;41.05;18.46;95758.83;128330;1101;25313;-81
2021/05/12 07:25:02;;;;;;;1.68;1.58;;;;;;;42.02;18.01;95756.45;128244;1101;22756;-82
2021/05/12 07:27:32;;;;;;;3.98;2.00;;;;;;;42.58;16.61;95766.78;128229;1101;22916;-82
2021/05/12 07:30:02;;;;;;;5.20;2.00;;;;;;;41.54;15.32;95759.48;128252;1101;22761;-82
2021/05/12 07:32:32;;;;;;;2.23;1.90;;;;;;;40.97;16.89;95754.27;128252;1101;22777;-82
2021/05/12 07:35:02;;;;;;;1.85;1.50;;;;;;;41.17;16.18;95754.06;128274;1101;23580;-82
2021/05/12 07:37:32;;;;;;;2.10;1.80;;;;;;;40.10;17.77;95752.75;128230;1101;24818;-82
2021/05/12 07:40:02;;;;;;;2.03;1.70;;;;;;;41.05;17.13;95756.05;128265;1101;22920;-82
2021/05/12 07:42:34;;;;;;;3.98;1.90;;;;;;;39.94;16.86;95751.34;128266;1096;22893;-82
2021/05/12 07:45:04;;;;;;;2.60;2.30;;;;;;;40.35;18.26;95749.13;128287;1101;22797;-80
2021/05/12 07:47:34;;;;;;;7.45;4.78;;;;;;;41.35;17.49;95750.83;128259;1101;22885;-80
2021/05/12 07:50:05;;;;;;;13.18;7.90;;;;;;;41.92;17.40;95751.64;128275;1101;23316;-80
2021/05/12 07:52:35;;;;;;;4.45;3.28;;;;;;;42.04;17.18;95753.16;128302;1101;22763;-80
2021/05/12 07:55:10;;;;;;;2.80;1.90;;;;;;;42.66;14.03;95754.60;128318;1101;22971;-80
2021/05/12 07:57:40;;;;;;;2.85;1.40;;;;;;;41.78;14.90;95754.19;128341;1101;22760;-81
2021/05/12 08:00:13;;;;;;;1.85;1.55;;;;;;;41.59;13.67;95747.58;128319;1101;22759;-81
2021/05/12 08:02:43;;;;;;;4.73;1.80;;;;;;;41.20;15.96;95744.70;128343;1101;22923;-81
2021/05/12 08:05:15;;;;;;;4.38;1.93;;;;;;;42.07;16.31;95746.56;128356;1101;22790;-80
2021/05/12 08:07:45;;;;;;;3.13;1.90;;;;;;;42.83;14.93;95740.59;128355;1101;22763;-80
2021/05/12 08:10:15;;;;;;;4.90;2.48;;;;;;;42.88;15.96;95744.61;128348;1101;22754;-80
2021/05/12 08:12:45;;;;;;;2.60;1.88;;;;;;;43.20;16.29;95744.97;128327;1101;24322;-79
2021/05/12 08:15:15;;;;;;;4.98;2.50;;;;;;;42.57;16.27;95749.30;128299;1101;22826;-80
2021/05/12 08:17:45;;;;;;;5.13;2.08;;;;;;;42.84;16.64;95742.10;128395;1101;22761;-80
2021/05/12 08:20:16;;;;;;;4.60;2.08;;;;;;;43.26;16.23;95728.97;128350;1101;22759;-80
2021/05/12 08:22:46;;;;;;;6.60;2.18;;;;;;;43.37;15.39;95737.30;128303;1101;23625;-79
2021/05/12 08:25:17;;;;;;;4.78;1.93;;;;;;;41.72;16.00;95736.73;128278;1101;24382;-80
2021/05/12 08:27:47;;;;;;;4.60;2.18;;;;;;;41.95;16.12;95729.14;128262;1101;22813;-80
2021/05/12 08:30:21;;;;;;;3.18;2.03;;;;;;;42.11;16.54;95735.98;128251;1096;26210;-81
2021/05/12 08:32:52;;;;;;;2.65;1.85;;;;;;;42.20;16.78;95727.33;127833;1101;22742;-80
2021/05/12 08:35:22;;;;;;;2.20;1.70;;;;;;;42.45;15.93;95722.70;127823;1101;22756;-81
2021/05/12 08:37:53;;;;;;;6.15;1.93;;;;;;;41.73;16.71;95729.89;128408;1101;22830;-81
2021/05/12 08:40:23;;;;;;;4.58;2.00;;;;;;;41.76;16.61;95723.31;128282;1101;22750;-81
2021/05/12 08:42:56;;;;;;;5.20;2.25;;;;;;;40.24;15.53;95717.73;128327;1101;22923;-80
2021/05/12 08:45:27;;;;;;;6.10;2.10;;;;;;;39.50;18.25;95718.43;127884;1101;22777;-80
2021/05/12 08:47:58;;;;;;;3.85;1.70;;;;;;;40.04;17.93;95708.30;127809;1101;22754;-80
2021/05/12 08:50:29;;;;;;;1.88;1.63;;;;;;;40.18;17.60;95709.39;127898;1101;22786;-80
2021/05/12 08:53:00;;;;;;;4.85;2.08;;;;;;;40.38;16.96;95704.94;127818;1101;22732;-80
2021/05/12 08:55:30;;;;;;;3.00;1.40;;;;;;;40.75;17.27;95696.54;127667;1095;26261;-80
2021/05/12 08:58:01;;;;;;;2.10;1.70;;;;;;;39.93;15.01;95705.41;127794;1096;27050;-80
2021/05/12 09:00:31;;;;;;;5.33;1.80;;;;;;;38.46;15.90;95696.13;127802;1101;22761;-80
2021/05/12 09:03:03;;;;;;;2.93;1.68;;;;;;;37.38;17.64;95699.76;127880;1101;22795;-81
2021/05/12 09:05:33;;;;;;;2.98;1.90;;;;;;;37.41;18.55;95704.33;127780;1101;31340;-80
2021/05/12 09:08:06;;;;;;;6.08;2.00;;;;;;;37.99;18.93;95695.20;127787;1096;27254;-81
2021/05/12 09:10:37;;;;;;;3.05;1.65;;;;;;;38.23;19.21;95681.22;128279;1101;22809;-81
2021/05/12 09:13:07;;;;;;;3.78;1.83;;;;;;;37.59;19.17;95684.78;128232;1101;22799;-81
2021/05/12 09:15:40;;;;;;;5.05;2.03;;;;;;;37.17;19.79;95684.30;128301;1101;22839;-81
2021/05/12 09:18:09;;;;;;;;;;;;;;;37.25;19.64;95675.13;128320;1101;22932;-80
2021/05/12 09:20:42;;;;;;;4.65;2.05;;;;;;;37.16;19.48;95683.51;128288;1096;21467;-80
2021/05/12 09:23:18;;;;;;;2.25;2.00;;;;;;;36.32;20.36;95673.59;127915;1101;22952;-80
2021/05/12 09:25:58;;;;;;;4.00;1.65;;;;;;;36.17;20.96;95667.23;128306;1101;22846;-80
2021/05/12 09:28:31;;;;;;;3.23;1.95;;;;;;;35.62;21.54;95673.78;127818;1101;22787;-80
2021/05/12 09:31:07;;;;;;;17.35;2.50;;;;;;;35.21;22.19;95671.74;127863;1101;22933;-80
2021/05/12 09:33:40;;;;;;;3.20;1.78;;;;;;;34.68;22.48;95663.82;128346;1096;22800;-80
2021/05/12 09:36:25;;;;;;;4.97;1.93;;;;;;;33.68;22.66;95650.63;127846;1101;22769;-80
2021/05/12 09:38:56;;;;;;;3.70;1.70;;;;;;;33.06;22.78;95649.38;128248;1101;23890;-80
2021/05/12 09:41:34;;;;;;;3.63;1.43;;;;;;;32.57;21.42;95651.15;128250;1101;22807;-80
2021/05/12 09:44:07;;;;;;;1.53;1.33;;;;;;;31.72;22.59;95649.98;128272;1101;22869;-80
2021/05/12 09:46:39;;;;;;;3.83;1.35;;;;;;;31.54;22.10;95645.06;127883;1101;22766;-79
2021/05/12 09:49:17;;;;;;;2.20;1.45;;;;;;;30.54;22.94;95649.83;127776;1101;22758;-79
2021/05/12 09:51:50;;;;;;;3.15;1.40;;;;;;;30.41;24.53;95649.80;127810;1101;22814;-79
2021/05/12 09:54:22;;;;;;;2.40;1.45;;;;;;;30.32;23.47;95637.94;127816;1101;24430;-79
2021/05/12 09:56:56;;;;;;;4.80;1.35;;;;;;;30.49;24.34;95642.16;127830;1101;22787;-79
2021/05/12 09:59:29;;;;;;;4.43;1.98;;;;;;;30.14;23.71;95638.40;127890;1101;22767;-80
2021/05/12 10:02:00;;;;;;;8.23;2.40;;;;;;;30.01;26.32;95630.09;128338;1101;22766;-79
2021/05/12 10:04:36;;;;;;;4.60;1.98;;;;;;;30.28;27.14;95629.06;127877;1101;22784;-79
2021/05/12 10:07:17;;;;;;;4.30;1.40;;;;;;;30.32;25.88;95627.00;127880;1101;22754;-79
2021/05/12 10:09:50;;;;;;;7.75;1.63;;;;;;;30.43;25.82;95619.28;127787;1101;23373;-79
2021/05/12 10:12:22;;;;;;;1.83;1.20;;;;;;;30.48;24.03;95624.21;128326;1101;22766;-78
2021/05/12 10:14:55;;;;;;;3.30;1.10;;;;;;;30.10;23.52;95626.77;127783;1101;22766;-79
2021/05/12 10:17:27;;;;;;;2.88;1.30;;;;;;;29.92;24.60;95620.95;127842;1101;22763;-79
2021/05/12 10:19:58;;;;;;;3.00;1.85;;;;;;;29.93;27.20;95619.76;127746;1101;22774;-79
2021/05/12 10:22:28;;;;;;;2.30;1.53;;;;;;;29.83;25.16;95618.81;128269;1101;22816;-78
2021/05/12 10:24:58;;;;;;;4.50;1.48;;;;;;;29.61;25.50;95609.61;128280;1097;22791;-79
2021/05/12 10:27:30;;;;;;;2.25;1.30;;;;;;;29.12;24.47;95623.16;127791;1101;22766;-79
2021/05/12 10:30:04;;;;;;;3.10;1.40;;;;;;;28.79;26.46;95624.99;127834;1101;22770;-79
2021/05/12 10:32:36;;;;;;;3.08;1.40;;;;;;;28.34;26.45;95617.30;127850;1101;22839;-79
2021/05/12 10:35:09;;;;;;;2.53;1.38;;;;;;;27.95;26.94;95618.72;127768;1101;23473;-78
2021/05/12 10:37:41;;;;;;;2.53;1.70;;;;;;;28.01;26.64;95614.35;127769;1101;25369;-80
2021/05/12 10:40:20;;;;;;;2.88;1.83;;;;;;;28.10;27.81;95600.17;128248;1101;24354;-80
2021/05/12 10:43:09;;;;;;;2.18;1.78;;;;;;;28.60;28.51;95602.00;128390;1101;22791;-80
2021/05/12 10:46:03;;;;;;;4.93;1.70;;;;;;;29.05;28.23;95594.06;127885;1096;26187;-80
2021/05/12 10:48:46;;;;;;;4.03;1.55;;;;;;;28.82;25.93;95594.91;128351;1101;22895;-80
2021/05/12 10:51:34;;;;;;;2.70;1.83;;;;;;;28.14;28.01;95595.41;127841;1101;22801;-80
2021/05/12 10:54:07;;;;;;;1.75;1.48;;;;;;;27.91;28.35;95604.40;127894;1101;24363;-80
2021/05/12 10:56:40;;;;;;;5.90;1.83;;;;;;;27.28;28.86;95592.52;127777;1101;22922;-80
2021/05/12 10:59:12;;;;;;;2.58;1.60;;;;;;;27.54;30.65;95586.29;127870;1101;22767;-80
2021/05/12 11:01:55;;;;;;;2.53;1.70;;;;;;;27.67;28.71;95597.41;127829;1097;26405;-79
2021/05/12 11:04:25;;;;;;;2.03;1.48;;;;;;;26.91;29.94;95599.63;128256;1101;22766;-80
2021/05/12 11:07:13;;;;;;;3.48;1.65;;;;;;;26.99;30.11;95595.62;128281;1101;22770;-82
2021/05/12 11:09:48;;;;;;;1.83;1.50;;;;;;;27.25;29.00;95591.40;128269;1101;22791;-80
2021/05/12 11:12:23;;;;;;;3.20;1.75;;;;;;;27.37;30.04;95585.39;128326;1101;22850;-80
2021/05/12 11:15:06;;;;;;;4.23;1.85;;;;;;;27.57;30.47;95580.02;128380;1101;22791;-80
2021/05/12 11:17:56;;;;;;;1.95;1.58;;;;;;;27.64;29.69;95582.66;128363;1096;22775;-80
2021/05/12 11:20:27;;;;;;;6.23;1.73;;;;;;;27.49;28.54;95582.09;128362;1101;22766;-80
2021/05/12 11:23:02;;;;;;;2.53;1.50;;;;;;;27.57;29.58;95576.52;128373;1101;22894;-80
2021/05/12 11:25:41;;;;;;;4.03;1.70;;;;;;;27.23;29.99;95580.16;128335;1101;23537;-80
2021/05/12 11:31:38;;;;;;;2.53;1.48;;;;;;;26.12;30.90;95569.83;128280;1096;22939;-80
2021/05/12 12:16:51;;;;;;;1.75;1.10;;;;;;;27.47;28.10;95532.73;127865;1090;22850;-81
2021/05/12 12:19:24;;;;;;;2.85;1.10;;;;;;;27.02;26.08;95521.37;127815;1101;22764;-82
2021/05/12 12:21:55;;;;;;;1.83;1.05;;;;;;;26.96;25.50;95523.00;127880;1101;23367;-80
2021/05/12 12:24:27;;;;;;;2.53;1.08;;;;;;;27.07;27.00;95515.48;128166;1096;22797;-80
2021/05/12 12:26:59;;;;;;;2.30;1.28;;;;;;;27.19;26.82;95509.47;127957;1101;22744;-79
2021/05/12 12:29:31;;;;;;;3.58;1.30;;;;;;;27.30;27.66;95509.28;128309;1101;22987;-78
2021/05/12 12:32:06;;;;;;;1.38;1.00;;;;;;;27.15;25.91;95511.45;128163;1096;26244;-80